createdAt,value
2019-05-02T00:00:12.645Z,99609.87
2019-05-02T00:03:16.062Z,99606.52
2019-05-02T00:06:19.559Z,99615.19
2019-05-02T00:09:23.528Z,99611.84
2019-05-02T00:12:32.837Z,99612.91
2019-05-02T00:15:38.240Z,99608.20
2019-05-02T00:18:43.576Z,99611.49
2019-05-02T00:21:47.083Z,99612.10
2019-05-02T00:24:50.597Z,99601.25
2019-05-02T00:27:54.098Z,99603.78
2019-05-02T00:30:57.648Z,99594.82
2019-05-02T00:34:01.081Z,99594.56
2019-05-02T00:37:04.609Z,99591.82
2019-05-02T00:40:08.116Z,99590.48
2019-05-02T00:43:11.517Z,99586.50
2019-05-02T00:46:15.113Z,99585.52
2019-05-02T00:49:18.583Z,99585.17
2019-05-02T00:52:22.106Z,99572.84
2019-05-02T00:55:28.977Z,99572.84
2019-05-02T00:58:31.921Z,99571.50
2019-05-02T01:01:51.763Z,99566.56
2019-05-02T01:04:59.337Z,99564.52
2019-05-02T01:08:01.138Z,99562.12
2019-05-02T01:11:05.611Z,99563.19
2019-05-02T01:14:09.114Z,99553.88
2019-05-02T01:17:12.639Z,99549.89
2019-05-02T01:20:17.631Z,99543.25
2019-05-02T01:23:23.074Z,99548.56
2019-05-02T01:26:29.617Z,99545.56
2019-05-02T01:29:42.466Z,99541.20
2019-05-02T01:33:06.451Z,99542.53
2019-05-02T01:36:13.764Z,99535.67
2019-05-02T01:39:17.184Z,99528.89
2019-05-02T01:42:20.581Z,99523.84
2019-05-02T01:45:27.265Z,99525.55
2019-05-02T01:48:30.851Z,99518.19
2019-05-02T01:51:36.843Z,99514.06
2019-05-02T01:54:45.368Z,99517.58
2019-05-02T01:57:46.042Z,99518.91
2019-05-02T02:00:49.734Z,99510.55
2019-05-02T02:03:53.273Z,99507.08
2019-05-02T02:06:56.772Z,99500.91
2019-05-02T02:10:00.274Z,99501.25
2019-05-02T02:13:05.323Z,99499.84
2019-05-02T02:16:09.035Z,99496.58
2019-05-02T02:19:18.480Z,99495.25
2019-05-02T02:22:40.772Z,99496.08
2019-05-02T02:25:49.714Z,99488.74
2019-05-02T02:28:53.232Z,99487.76
2019-05-02T02:31:56.772Z,99485.95
2019-05-02T02:35:03.516Z,99488.02
2019-05-02T02:38:05.389Z,99483.22
2019-05-02T02:41:12.918Z,99482.23
2019-05-02T02:44:33.530Z,99480.91
2019-05-02T02:47:36.763Z,99487.03
2019-05-02T02:50:43.166Z,99495.02
2019-05-02T02:53:45.422Z,99486.56
2019-05-02T02:56:48.887Z,99487.55
2019-05-02T02:59:52.306Z,99489.86
2019-05-02T03:02:56.039Z,99489.86
2019-05-02T03:06:05.892Z,99492.35
2019-05-02T03:09:06.783Z,99493.13
2019-05-02T03:12:41.650Z,99489.14
2019-05-02T03:15:48.544Z,99489.14
2019-05-02T03:18:52.118Z,99493.47
2019-05-02T03:22:01.061Z,99492.78
2019-05-02T03:25:00.777Z,99496.13
2019-05-02T03:28:04.322Z,99494.72
2019-05-02T03:31:21.202Z,99499.91
2019-05-02T03:34:12.899Z,99496.05
2019-05-02T03:37:16.405Z,99499.77
2019-05-02T03:40:19.907Z,99496.13
2019-05-02T03:43:25.585Z,99499.77
2019-05-02T03:46:28.735Z,99495.06
2019-05-02T03:49:32.263Z,99497.25
2019-05-02T03:52:43.498Z,99493.73
2019-05-02T03:55:43.170Z,99502.56
2019-05-02T03:58:48.350Z,99500.76
2019-05-02T04:01:51.771Z,99505.09
2019-05-02T04:05:00.580Z,99497.25
2019-05-02T04:08:00.960Z,99494.72
2019-05-02T04:11:24.410Z,99497.98
2019-05-02T04:14:37.482Z,99495.44
2019-05-02T04:17:35.769Z,99498.71
2019-05-02T04:20:43.562Z,99501.02
2019-05-02T04:23:44.450Z,99493.05
2019-05-02T04:26:54.021Z,99492.30
2019-05-02T04:29:53.396Z,99494.95
2019-05-02T04:32:57.970Z,99487.25
2019-05-02T04:36:01.351Z,99486.98
2019-05-02T04:39:12.694Z,99493.05
2019-05-02T04:42:18.249Z,99497.27
2019-05-02T04:45:26.473Z,99495.59
2019-05-02T04:48:24.242Z,99504.26
2019-05-02T04:51:31.759Z,99500.41
2019-05-02T04:54:32.950Z,99504.90
2019-05-02T04:57:46.801Z,99504.77
2019-05-02T05:00:45.171Z,99502.93
2019-05-02T05:03:57.417Z,99504.39
2019-05-02T05:06:58.139Z,99505.85
2019-05-02T05:10:03.168Z,99508.51
2019-05-02T05:13:07.843Z,99514.80
2019-05-02T05:16:15.570Z,99518.45
2019-05-02T05:19:17.909Z,99519.32
2019-05-02T05:22:21.289Z,99512.41
2019-05-02T05:25:30.868Z,99514.09
2019-05-02T05:28:35.095Z,99518.37
2019-05-02T05:31:39.460Z,99515.07
2019-05-02T05:34:42.891Z,99516.74
2019-05-02T05:37:51.179Z,99513.48
2019-05-02T05:40:52.643Z,99513.61
2019-05-02T05:43:57.421Z,99512.49
2019-05-02T05:47:00.960Z,99513.48
2019-05-02T05:50:04.888Z,99506.97
2019-05-02T05:53:12.478Z,99505.85
2019-05-02T05:56:13.533Z,99510.21
2019-05-02T05:59:17.587Z,99508.88
2019-05-02T06:02:21.007Z,99515.80
2019-05-02T06:05:24.546Z,99512.02
2019-05-02T06:08:28.167Z,99516.98
2019-05-02T06:11:31.787Z,99509.49
2019-05-02T06:14:35.435Z,99505.51
2019-05-02T06:17:38.953Z,99501.09
2019-05-02T06:20:44.627Z,99506.84
2019-05-02T06:23:48.121Z,99504.02
2019-05-02T06:26:51.943Z,99502.83
2019-05-02T06:29:57.334Z,99496.05
2019-05-02T06:33:00.994Z,99508.48
2019-05-02T06:36:05.624Z,99502.19
2019-05-02T06:39:09.329Z,99503.75
2019-05-02T06:42:13.040Z,99500.25
2019-05-02T06:45:18.374Z,99505.77
2019-05-02T06:48:24.482Z,99501.09
2019-05-02T06:51:28.009Z,99493.89
2019-05-02T06:54:31.622Z,99497.98
2019-05-02T06:57:35.103Z,99493.88
2019-05-02T07:00:56.492Z,99491.94
2019-05-02T07:03:46.321Z,99485.77
2019-05-02T07:06:58.765Z,99483.96
2019-05-02T07:09:56.892Z,99477.52
2019-05-02T07:13:09.959Z,99481.17
2019-05-02T07:16:16.074Z,99475.72
2019-05-02T07:19:27.209Z,99479.23
2019-05-02T07:22:33.050Z,99472.93
2019-05-02T07:25:39.128Z,99473.27
2019-05-02T07:28:45.774Z,99458.66
2019-05-02T07:31:48.925Z,99462.03
2019-05-02T07:34:53.574Z,99469.02
2019-05-02T07:37:57.056Z,99474.33
2019-05-02T07:41:00.506Z,99477.71
2019-05-02T07:44:04.444Z,99472.39
2019-05-02T07:47:08.017Z,99472.26
2019-05-02T07:50:11.959Z,99465.11
2019-05-02T07:53:15.757Z,99465.11
2019-05-02T07:56:19.302Z,99474.75
2019-05-02T07:59:25.106Z,99470.16
2019-05-02T08:02:29.784Z,99464.84
2019-05-02T08:05:33.285Z,99466.16
2019-05-02T08:08:38.845Z,99468.21
2019-05-02T08:11:42.340Z,99469.61
2019-05-02T08:14:45.997Z,99472.48
2019-05-02T08:17:53.800Z,99473.33
2019-05-02T08:20:57.286Z,99473.41
2019-05-02T08:24:02.210Z,99474.46
2019-05-02T08:27:22.880Z,99477.19
2019-05-02T08:30:27.939Z,99477.19
2019-05-02T08:33:34.790Z,99475.08
2019-05-02T08:36:38.604Z,99475.59
2019-05-02T08:39:42.155Z,99476.20
2019-05-02T08:42:45.624Z,99473.81
2019-05-02T08:45:49.242Z,99481.45
2019-05-02T08:48:53.852Z,99484.11
2019-05-02T08:51:57.335Z,99482.30
2019-05-02T08:55:04.477Z,99480.12
2019-05-02T08:58:14.230Z,99474.73
2019-05-02T09:01:13.637Z,99471.42
2019-05-02T09:04:17.691Z,99467.17
2019-05-02T09:07:22.285Z,99468.50
2019-05-02T09:10:25.934Z,99467.88
2019-05-02T09:13:32.868Z,99468.50
2019-05-02T09:16:35.798Z,99461.38
2019-05-02T09:19:39.216Z,99459.56
2019-05-02T09:22:46.654Z,99456.77
2019-05-02T09:25:48.145Z,99461.58
2019-05-02T09:28:51.834Z,99448.62
2019-05-02T09:31:55.356Z,99452.61
2019-05-02T09:35:02.145Z,99448.01
2019-05-02T09:38:04.048Z,99445.69
2019-05-02T09:41:16.921Z,99448.08
2019-05-02T09:44:14.588Z,99437.09
2019-05-02T09:47:27.409Z,99436.38
2019-05-02T09:50:34.377Z,99428.78
2019-05-02T09:53:37.062Z,99427.80
2019-05-02T09:56:40.462Z,99422.13
2019-05-02T09:59:50.267Z,99424.80
2019-05-02T10:02:49.220Z,99426.46
2019-05-02T10:05:54.818Z,99422.47
2019-05-02T10:08:58.644Z,99417.83
2019-05-02T10:12:02.250Z,99416.88
2019-05-02T10:15:13.539Z,99412.89
2019-05-02T10:18:19.631Z,99412.52
2019-05-02T10:21:23.107Z,99415.03
2019-05-02T10:24:26.527Z,99408.77
2019-05-02T10:27:32.174Z,99404.91
2019-05-02T10:30:36.098Z,99403.78
2019-05-02T10:33:39.780Z,99401.60
2019-05-02T10:36:45.370Z,99402.66
2019-05-02T10:39:48.628Z,99399.17
2019-05-02T10:42:52.286Z,99401.05
2019-05-02T10:46:02.095Z,99388.95
2019-05-02T10:49:20.248Z,99394.14
2019-05-02T10:52:29.773Z,99384.55
2019-05-02T10:55:33.219Z,99370.39
2019-05-02T10:58:36.975Z,99368.64
2019-05-02T11:02:02.406Z,99367.45
2019-05-02T11:05:11.988Z,99371.53
2019-05-02T11:08:15.414Z,99359.61
2019-05-02T11:11:18.919Z,99353.02
2019-05-02T11:14:28.880Z,99354.06
2019-05-02T11:17:36.668Z,99347.75
2019-05-02T11:20:41.917Z,99353.92
2019-05-02T11:23:45.291Z,99340.10
2019-05-02T11:26:48.922Z,99342.62
2019-05-02T11:29:52.685Z,99345.80
2019-05-02T11:32:57.163Z,99337.95
2019-05-02T11:36:02.519Z,99332.48
2019-05-02T11:39:16.238Z,99339.14
2019-05-02T11:42:12.481Z,99323.03
2019-05-02T11:45:16.055Z,99317.91
2019-05-02T11:48:19.862Z,99309.27
2019-05-02T11:51:23.447Z,99320.56
2019-05-02T11:54:27.816Z,99319.91
2019-05-02T11:57:33.158Z,99313.63
2019-05-02T12:00:39.670Z,99312.15
2019-05-02T12:03:45.549Z,99309.69
2019-05-02T12:06:49.409Z,99318.66
2019-05-02T12:09:57.007Z,99315.34
2019-05-02T12:13:02.142Z,99324.52
2019-05-02T12:16:08.628Z,99308.59
2019-05-02T12:19:14.860Z,99303.08
2019-05-02T12:22:17.334Z,99307.41
2019-05-02T12:25:22.349Z,99307.26
2019-05-02T12:28:25.970Z,99301.02
2019-05-02T12:31:32.473Z,99286.86
2019-05-02T12:34:36.917Z,99299.55
2019-05-02T12:37:42.554Z,99291.19
2019-05-02T12:40:46.021Z,99288.89
2019-05-02T12:43:49.427Z,99300.92
2019-05-02T12:46:52.922Z,99297.89
2019-05-02T12:49:57.464Z,99300.55
2019-05-02T12:53:03.128Z,99298.64
2019-05-02T12:56:06.500Z,99295.93
2019-05-02T12:59:11.862Z,99289.09
2019-05-02T13:02:26.211Z,99295.03
2019-05-02T13:05:31.788Z,99291.84
2019-05-02T13:08:48.377Z,99293.02
2019-05-02T13:12:02.810Z,99283.75
2019-05-02T13:15:06.724Z,99280.48
2019-05-02T13:18:12.409Z,99280.82
2019-05-02T13:21:20.887Z,99274.57
2019-05-02T13:24:32.629Z,99279.23
2019-05-02T13:27:43.570Z,99278.61
2019-05-02T13:31:06.708Z,99272.14
2019-05-02T13:34:15.456Z,99265.00
2019-05-02T13:37:19.988Z,99257.34
2019-05-02T13:40:28.165Z,99261.34
2019-05-02T13:43:39.615Z,99260.05
2019-05-02T13:46:43.152Z,99256.38
2019-05-02T13:49:53.842Z,99262.08
2019-05-02T13:52:57.725Z,99258.45
2019-05-02T13:56:16.301Z,99253.82
2019-05-02T13:59:22.235Z,99254.00
2019-05-02T14:02:36.624Z,99245.86
2019-05-02T14:05:48.787Z,99241.20
2019-05-02T14:08:55.311Z,99238.91
2019-05-02T14:12:17.849Z,99240.90
2019-05-02T14:15:23.633Z,99244.11
2019-05-02T14:18:31.653Z,99231.94
2019-05-02T14:21:34.718Z,99246.23
2019-05-02T14:24:38.213Z,99241.75
2019-05-02T14:27:42.252Z,99228.94
2019-05-02T14:30:46.864Z,99230.64
2019-05-02T14:34:08.293Z,99230.28
2019-05-02T14:37:11.972Z,99228.80
2019-05-02T14:40:25.641Z,99232.30
2019-05-02T14:43:48.337Z,99231.16
2019-05-02T14:46:52.359Z,99232.01
2019-05-02T14:49:56.649Z,99221.86
2019-05-02T14:53:04.316Z,99220.05
2019-05-02T14:56:15.185Z,99221.86
2019-05-02T14:59:20.071Z,99222.02
2019-05-02T15:02:47.577Z,99220.05
2019-05-02T15:05:49.540Z,99227.04
2019-05-02T15:08:53.219Z,99222.38
2019-05-02T15:12:02.432Z,99228.67
2019-05-02T15:15:05.664Z,99224.34
2019-05-02T15:18:15.855Z,99224.34
2019-05-02T15:21:22.903Z,99222.02
2019-05-02T15:24:27.698Z,99217.68
2019-05-02T15:27:41.921Z,99210.72
2019-05-02T15:30:44.790Z,99212.02
2019-05-02T15:33:51.821Z,99216.65
2019-05-02T15:36:55.457Z,99215.69
2019-05-02T15:43:09.136Z,99207.98
2019-05-02T15:46:09.466Z,99210.29
2019-05-02T15:49:12.939Z,99213.29
2019-05-02T15:52:24.175Z,99216.95
2019-05-02T15:55:25.521Z,99212.02
2019-05-02T15:58:29.177Z,99212.35
2019-05-02T16:01:41.587Z,99212.66
2019-05-02T16:04:45.872Z,99219.31
2019-05-02T16:07:49.330Z,99222.64
2019-05-02T16:10:54.718Z,99219.28
2019-05-02T16:13:58.161Z,99213.95
2019-05-02T16:17:03.761Z,99216.95
2019-05-02T16:20:18.302Z,99215.95
2019-05-02T16:23:29.859Z,99212.59
2019-05-02T16:26:27.129Z,99208.59
2019-05-02T16:29:31.819Z,99203.90
2019-05-02T16:32:42.078Z,99205.56
2019-05-02T16:35:52.928Z,99204.90
2019-05-02T16:38:54.883Z,99206.72
2019-05-02T16:42:02.410Z,99205.90
2019-05-02T16:45:08.176Z,99203.56
2019-05-02T16:48:12.031Z,99203.23
2019-05-02T16:51:29.989Z,99197.91
2019-05-02T16:54:22.375Z,99192.91
2019-05-02T16:57:25.955Z,99200.27
2019-05-02T17:00:32.048Z,99202.08
2019-05-02T17:03:35.549Z,99199.23
2019-05-02T17:06:40.005Z,99201.91
2019-05-02T17:10:16.138Z,99199.39
2019-05-02T17:13:16.683Z,99200.54
2019-05-02T17:16:22.079Z,99200.23
2019-05-02T17:19:26.113Z,99203.53
2019-05-02T17:22:32.339Z,99201.02
2019-05-02T17:25:36.266Z,99201.47
2019-05-02T17:28:43.333Z,99206.80
2019-05-02T17:31:44.959Z,99202.63
2019-05-02T17:34:48.450Z,99200.95
2019-05-02T17:37:52.369Z,99204.58
2019-05-02T17:41:03.639Z,99209.09
2019-05-02T17:44:03.188Z,99206.58
2019-05-02T17:47:06.667Z,99210.06
2019-05-02T17:50:19.516Z,99213.06
2019-05-02T17:53:23.996Z,99209.69
2019-05-02T17:56:27.415Z,99206.88
2019-05-02T17:59:37.803Z,99200.41
2019-05-02T18:02:42.364Z,99206.80
2019-05-02T18:05:45.856Z,99210.16
2019-05-02T18:08:51.602Z,99206.50
2019-05-02T18:11:54.423Z,99203.17
2019-05-02T18:14:59.024Z,99203.50
2019-05-02T18:18:06.868Z,99199.80
2019-05-02T18:21:09.258Z,99205.17
2019-05-02T18:24:12.735Z,99203.17
2019-05-02T18:27:16.127Z,99208.50
2019-05-02T18:30:24.987Z,99205.31
2019-05-02T18:33:26.523Z,99207.83
2019-05-02T18:36:31.971Z,99206.95
2019-05-02T18:39:44.748Z,99199.47
2019-05-02T18:42:42.304Z,99199.26
2019-05-02T18:45:45.504Z,99201.41
2019-05-02T18:48:49.258Z,99209.55
2019-05-02T18:51:57.161Z,99211.36
2019-05-02T18:54:59.011Z,99217.20
2019-05-02T18:58:05.392Z,99219.64
2019-05-02T19:01:08.632Z,99221.67
2019-05-02T19:04:13.242Z,99217.83
2019-05-02T19:07:16.738Z,99215.32
2019-05-02T19:10:20.215Z,99214.98
2019-05-02T19:13:23.716Z,99221.64
2019-05-02T19:16:28.854Z,99212.62
2019-05-02T19:19:36.711Z,99218.80
2019-05-02T19:22:48.109Z,99219.27
2019-05-02T19:25:42.858Z,99219.27
2019-05-02T19:29:02.309Z,99216.77
2019-05-02T19:32:08.335Z,99218.94
2019-05-02T19:35:11.766Z,99211.58
2019-05-02T19:38:17.167Z,99208.59
2019-05-02T19:41:22.194Z,99214.73
2019-05-02T19:44:28.956Z,99215.24
2019-05-02T19:47:31.694Z,99219.84
2019-05-02T19:50:41.602Z,99214.51
2019-05-02T19:53:42.797Z,99214.17
2019-05-02T19:56:47.658Z,99215.36
2019-05-02T19:59:52.449Z,99216.84
2019-05-02T20:02:55.916Z,99211.52
2019-05-02T20:06:02.313Z,99206.81
2019-05-02T20:09:08.287Z,99213.48
2019-05-02T20:12:15.498Z,99210.48
2019-05-02T20:15:22.822Z,99202.16
2019-05-02T20:18:22.495Z,99200.83
2019-05-02T20:21:32.648Z,99205.30
2019-05-02T20:24:58.326Z,99199.49
2019-05-02T20:27:59.222Z,99204.12
2019-05-02T20:31:03.729Z,99203.38
2019-05-02T20:34:07.273Z,99199.34
2019-05-02T20:37:12.618Z,99196.02
2019-05-02T20:40:26.312Z,99182.66
2019-05-02T20:43:32.320Z,99183.99
2019-05-02T20:46:35.999Z,99179.30
2019-05-02T20:49:39.475Z,99176.78
2019-05-02T20:52:42.985Z,99187.25
2019-05-02T20:55:46.488Z,99180.26
2019-05-02T20:58:52.657Z,99185.03
2019-05-02T21:01:56.300Z,99188.17
2019-05-02T21:05:02.717Z,99197.44
2019-05-02T21:08:16.992Z,99191.78
2019-05-02T21:11:20.571Z,99187.45
2019-05-02T21:14:24.071Z,99195.73
2019-05-02T21:17:27.476Z,99195.88
2019-05-02T21:20:32.547Z,99195.69
2019-05-02T21:23:44.877Z,99192.66
2019-05-02T21:26:42.118Z,99191.47
2019-05-02T21:29:45.806Z,99190.29
2019-05-02T21:32:49.269Z,99183.64
2019-05-02T21:35:52.868Z,99188.29
2019-05-02T21:38:56.383Z,99184.59
2019-05-02T21:41:59.786Z,99187.95
2019-05-02T21:45:03.398Z,99187.58
2019-05-02T21:48:06.885Z,99190.24
2019-05-02T21:51:22.613Z,99188.24
2019-05-02T21:54:52.186Z,99182.07
2019-05-02T21:57:55.705Z,99186.55
2019-05-02T22:01:03.923Z,99183.50
2019-05-02T22:04:08.426Z,99179.84
2019-05-02T22:07:12.801Z,99186.02
2019-05-02T22:10:16.212Z,99179.17
2019-05-02T22:13:19.656Z,99186.83
2019-05-02T22:16:23.054Z,99187.48
2019-05-02T22:19:26.537Z,99196.66
2019-05-02T22:22:31.784Z,99205.78
2019-05-02T22:25:35.209Z,99203.70
2019-05-02T22:28:38.681Z,99204.08
2019-05-02T22:31:42.998Z,99210.36
2019-05-02T22:34:46.727Z,99218.34
2019-05-02T22:37:52.064Z,99220.03
2019-05-02T22:40:57.249Z,99224.28
2019-05-02T22:44:01.946Z,99231.64
2019-05-02T22:47:05.506Z,99227.59
2019-05-02T22:50:09.626Z,99226.61
2019-05-02T22:53:15.077Z,99226.89
2019-05-02T22:56:18.572Z,99232.78
2019-05-02T22:59:23.911Z,99230.55
2019-05-02T23:02:27.216Z,99231.59
2019-05-02T23:05:32.121Z,99224.52
2019-05-02T23:08:36.192Z,99224.89
2019-05-02T23:11:39.788Z,99221.19
2019-05-02T23:14:43.271Z,99226.50
2019-05-02T23:17:46.804Z,99226.50
2019-05-02T23:20:52.575Z,99229.16
2019-05-02T23:23:58.279Z,99229.50
2019-05-02T23:27:15.084Z,99228.83
2019-05-02T23:30:22.514Z,99223.65
2019-05-02T23:33:29.000Z,99228.41
2019-05-02T23:36:32.785Z,99226.17
2019-05-02T23:39:36.262Z,99222.94
2019-05-02T23:42:41.601Z,99227.41
2019-05-02T23:45:45.940Z,99229.11
2019-05-02T23:48:49.337Z,99228.12
2019-05-02T23:51:52.926Z,99231.26
2019-05-02T23:54:56.465Z,99226.08
2019-05-02T23:57:59.902Z,99229.73
